Time;durP1;ratioP1;P1;durP2;ratioP2;P2;SDS_P1;SDS_P2;PMS_P1;PMS_P2;Temp;Humidity;BMP_temperature;BMP_pressure;BME280_temperature;BME280_humidity;BME280_pressure;Samples;Min_cycle;Max_cycle;Signal;HPM_P1;HPM_P2
2021/01/21 00:01:23;;;;;;;;;;;7.80;99.90;;;;;;12368135;28;20914;-36
2021/01/21 00:07:25;;;;;;;;;;;7.70;99.90;;;;;;12406569;28;19926;-36
2021/01/21 00:13:26;;;;;;;;;;;7.80;99.90;;;;;;12410469;28;19934;-36
2021/01/21 00:19:27;;;;;;;;;;;7.80;99.90;;;;;;12394452;28;20008;-36
2021/01/21 00:25:29;;;;;;;;;;;7.90;99.90;;;;;;12384852;28;19961;-36
2021/01/21 00:31:30;;;;;;;;;;;8.00;99.90;;;;;;12396042;28;19925;-36
2021/01/21 00:37:31;;;;;;;;;;;8.00;99.90;;;;;;12402747;28;19930;-36
2021/01/21 00:43:34;;;;;;;;;;;8.10;99.90;;;;;;12389859;28;19980;-36
2021/01/21 00:49:35;;;;;;;;;;;8.10;99.90;;;;;;12331469;28;19930;-36
2021/01/21 00:55:36;;;;;;;;;;;8.00;99.90;;;;;;12386458;28;20377;-36
2021/01/21 01:01:37;;;;;;;;;;;8.10;99.90;;;;;;12390046;28;20020;-36
2021/01/21 01:07:39;;;;;;;;;;;8.10;99.90;;;;;;12380856;28;19929;-36
2021/01/21 01:13:40;;;;;;;;;;;8.10;99.90;;;;;;12395126;28;19986;-36
2021/01/21 01:19:41;;;;;;;;;;;8.10;99.90;;;;;;12382419;28;19972;-33
2021/01/21 01:25:43;;;;;;;;;;;8.10;99.90;;;;;;12384554;28;19964;-36
2021/01/21 01:31:44;;;;;;;;;;;8.10;99.90;;;;;;12382562;28;20487;-33
2021/01/21 01:37:45;;;;;;;;;;;8.10;99.90;;;;;;12362546;28;19930;-33
2021/01/21 01:43:50;;;;;;;;;;;8.10;99.90;;;;;;12388028;28;19969;-34
2021/01/21 01:49:53;;;;;;;;;;;8.10;99.90;;;;;;12396174;28;19952;-33
2021/01/21 01:55:55;;;;;;;;;;;8.00;99.90;;;;;;12374625;28;19975;-33
2021/01/21 02:01:56;;;;;;;;;;;8.20;99.90;;;;;;12379878;28;19929;-34
2021/01/21 02:07:58;;;;;;;;;;;8.20;99.90;;;;;;12380770;28;20045;-33
2021/01/21 02:13:59;;;;;;;;;;;8.30;99.90;;;;;;12386544;28;20381;-33
2021/01/21 02:20:12;;;;;;;;;;;8.30;99.90;;;;;;12381854;28;19925;-33
2021/01/21 02:26:40;;;;;;;;;;;8.50;99.90;;;;;;12394302;28;19977;-33
2021/01/21 02:32:49;;;;;;;;;;;8.40;99.90;;;;;;12383450;28;19985;-33
2021/01/21 02:38:52;;;;;;;;;;;8.40;99.90;;;;;;12366698;28;19930;-33
2021/01/21 02:44:54;;;;;;;;;;;8.40;99.90;;;;;;12341365;28;20300;-33
2021/01/21 02:51:05;;;;;;;;;;;8.60;99.90;;;;;;12328715;28;19972;-33
2021/01/21 02:57:10;;;;;;;;;;;8.40;99.90;;;;;;12329594;28;20380;-33
2021/01/21 03:03:14;;;;;;;;;;;8.50;99.90;;;;;;12365621;28;20016;-33
2021/01/21 03:09:15;;;;;;;;;;;8.40;99.90;;;;;;12383519;28;20127;-33
2021/01/21 03:15:16;;;;;;;;;;;8.30;99.90;;;;;;12351847;28;19934;-33
2021/01/21 03:21:18;;;;;;;;;;;8.30;99.90;;;;;;12362514;28;20021;-33
2021/01/21 03:27:19;;;;;;;;;;;8.30;99.90;;;;;;12358211;28;19929;-33
2021/01/21 03:33:20;;;;;;;;;;;8.20;99.90;;;;;;12339870;28;19930;-33
2021/01/21 03:39:22;;;;;;;;;;;8.10;99.90;;;;;;12328937;28;19976;-33
2021/01/21 03:45:23;;;;;;;;;;;8.30;99.90;;;;;;12339453;28;20297;-33
2021/01/21 03:51:24;;;;;;;;;;;8.30;99.90;;;;;;12332788;28;20218;-33
2021/01/21 03:57:26;;;;;;;;;;;8.30;99.90;;;;;;12330233;28;19926;-33
2021/01/21 04:03:27;;;;;;;;;;;8.20;99.90;;;;;;12361647;28;19976;-34
2021/01/21 04:09:28;;;;;;;;;;;8.50;99.90;;;;;;12389426;28;19995;-33
2021/01/21 04:15:29;;;;;;;;;;;8.60;99.90;;;;;;12350273;28;20397;-33
2021/01/21 04:21:31;;;;;;;;;;;8.70;99.90;;;;;;12330026;28;19969;-33
2021/01/21 04:27:32;;;;;;;;;;;8.60;99.90;;;;;;12358503;28;20032;-33
2021/01/21 04:33:45;;;;;;;;;;;8.70;99.90;;;;;;12344892;28;19937;-33
2021/01/21 04:39:46;;;;;;;;;;;8.70;99.90;;;;;;12341540;28;20032;-33
2021/01/21 04:45:48;;;;;;;;;;;8.60;99.90;;;;;;12390578;28;20044;-33
2021/01/21 04:51:49;;;;;;;;;;;8.60;99.90;;;;;;12405680;28;20584;-33
2021/01/21 04:57:57;;;;;;;;;;;8.60;99.90;;;;;;12406044;28;20000;-33
2021/01/21 05:04:00;;;;;;;;;;;8.60;99.90;;;;;;12371764;28;20424;-33
2021/01/21 05:10:01;;;;;;;;;;;8.50;99.90;;;;;;12357791;28;20110;-33
2021/01/21 05:16:03;;;;;;;;;;;8.60;99.90;;;;;;12331557;28;20001;-34
2021/01/21 05:22:04;;;;;;;;;;;8.70;99.90;;;;;;12347633;28;20016;-33
2021/01/21 05:28:06;;;;;;;;;;;9.00;99.90;;;;;;12327453;28;20330;-33
2021/01/21 05:34:08;;;;;;;;;;;9.20;99.90;;;;;;12381159;28;19936;-34
2021/01/21 05:40:10;;;;;;;;;;;9.30;99.90;;;;;;12398155;28;19937;-33
2021/01/21 05:46:11;;;;;;;;;;;9.40;99.90;;;;;;12357175;28;19937;-33
2021/01/21 05:52:12;;;;;;;;;;;9.80;99.90;;;;;;12337278;28;19925;-34
2021/01/21 05:58:14;;;;;;;;;;;10.30;99.90;;;;;;12325734;28;20044;-34
2021/01/21 06:04:17;;;;;;;;;;;10.30;99.90;;;;;;12374500;28;20103;-33
2021/01/21 06:10:19;;;;;;;;;;;10.40;99.90;;;;;;12406050;28;20386;-33
2021/01/21 06:16:21;;;;;;;;;;;10.50;99.90;;;;;;12397393;28;20393;-34
2021/01/21 06:22:24;;;;;;;;;;;10.30;99.90;;;;;;12405684;28;19926;-34
2021/01/21 06:28:26;;;;;;;;;;;10.20;99.90;;;;;;12396371;28;20267;-33
2021/01/21 06:34:31;;;;;;;;;;;10.10;99.90;;;;;;12350335;28;19929;-35
2021/01/21 06:40:34;;;;;;;;;;;10.20;99.90;;;;;;12352254;28;19953;-34
2021/01/21 06:46:35;;;;;;;;;;;10.30;99.90;;;;;;12336372;28;20021;-34
2021/01/21 06:52:37;;;;;;;;;;;10.40;99.90;;;;;;12364728;28;19984;-34
2021/01/21 06:58:45;;;;;;;;;;;10.40;99.90;;;;;;12392196;28;20345;-34
2021/01/21 07:05:06;;;;;;;;;;;10.30;99.90;;;;;;12386666;28;19929;-33
2021/01/21 07:11:07;;;;;;;;;;;8.50;99.90;;;;;;12381095;28;20009;-33
2021/01/21 07:17:10;;;;;;;;;;;7.30;99.90;;;;;;12344252;28;20389;-33
2021/01/21 07:23:17;;;;;;;;;;;6.80;99.90;;;;;;12351183;28;19965;-33
2021/01/21 07:29:19;;;;;;;;;;;6.60;99.90;;;;;;12337654;28;20157;-33
2021/01/21 07:35:32;;;;;;;;;;;6.40;99.90;;;;;;12359225;28;20029;-33
2021/01/21 07:41:40;;;;;;;;;;;6.40;99.90;;;;;;12367415;28;19926;-33
2021/01/21 07:47:42;;;;;;;;;;;6.30;99.90;;;;;;12346891;28;20032;-33
2021/01/21 07:53:45;;;;;;;;;;;6.20;99.90;;;;;;12360994;28;19930;-33
2021/01/21 07:59:56;;;;;;;;;;;6.20;99.90;;;;;;12359934;28;20016;-33
2021/01/21 08:06:13;;;;;;;;;;;6.20;99.90;;;;;;12335839;28;20365;-33
2021/01/21 08:12:15;;;;;;;;;;;6.20;99.90;;;;;;12354280;28;19988;-33
2021/01/21 08:18:20;;;;;;;;;;;6.20;99.90;;;;;;12408690;28;19933;-33
2021/01/21 08:24:22;;;;;;;;;;;6.20;99.90;;;;;;12361818;28;19930;-33
2021/01/21 08:30:27;;;;;;;;;;;6.20;99.90;;;;;;12334210;28;19953;-33
2021/01/21 08:36:28;;;;;;;;;;;6.10;99.90;;;;;;12329804;28;19930;-33
2021/01/21 08:42:30;;;;;;;;;;;6.10;99.90;;;;;;12373939;28;19982;-33
2021/01/21 08:48:31;;;;;;;;;;;6.10;99.90;;;;;;12394169;28;19930;-33
2021/01/21 08:54:32;;;;;;;;;;;6.10;99.90;;;;;;12401940;28;19930;-33
2021/01/21 09:00:34;;;;;;;;;;;6.10;99.90;;;;;;12404890;28;19933;-33
2021/01/21 09:06:41;;;;;;;;;;;6.10;99.90;;;;;;12401339;28;19926;-33
2021/01/21 09:12:59;;;;;;;;;;;6.10;99.90;;;;;;12368844;28;20008;-33
2021/01/21 09:19:00;;;;;;;;;;;6.10;99.90;;;;;;12369760;28;19987;-35
2021/01/21 09:25:03;;;;;;;;;;;6.10;99.90;;;;;;12353839;28;19987;-34
2021/01/21 09:31:04;;;;;;;;;;;6.10;99.90;;;;;;12338909;28;20389;-33
2021/01/21 09:37:05;;;;;;;;;;;6.10;99.90;;;;;;12353743;28;19926;-33
2021/01/21 09:43:07;;;;;;;;;;;6.10;99.90;;;;;;12353837;28;20358;-33
2021/01/21 09:49:08;;;;;;;;;;;6.20;99.90;;;;;;12324947;28;19933;-35
2021/01/21 09:55:12;;;;;;;;;;;6.10;99.90;;;;;;12386751;28;19980;-33
2021/01/21 10:01:13;;;;;;;;;;;6.10;99.90;;;;;;12397607;28;19979;-33
2021/01/21 10:07:23;;;;;;;;;;;6.30;99.90;;;;;;12388177;28;20441;-33
2021/01/21 10:13:24;;;;;;;;;;;6.40;99.90;;;;;;12381562;28;19971;-36
2021/01/21 10:19:25;;;;;;;;;;;6.50;99.90;;;;;;12394416;28;19925;-36
2021/01/21 10:25:26;;;;;;;;;;;6.60;99.90;;;;;;12380425;28;20366;-36
2021/01/21 10:31:28;;;;;;;;;;;6.60;99.90;;;;;;12380725;28;20278;-36
2021/01/21 10:37:29;;;;;;;;;;;6.60;99.90;;;;;;12342388;28;19968;-36
2021/01/21 10:43:30;;;;;;;;;;;6.60;99.90;;;;;;12341744;28;19929;-36
2021/01/21 10:49:31;;;;;;;;;;;6.70;99.90;;;;;;12355664;28;19984;-36
2021/01/21 10:55:32;;;;;;;;;;;6.70;99.90;;;;;;12344603;28;20336;-36
2021/01/21 11:01:35;;;;;;;;;;;6.70;99.90;;;;;;12373487;28;19934;-36
2021/01/21 11:07:36;;;;;;;;;;;6.80;99.90;;;;;;12328950;28;20022;-36
2021/01/21 11:13:38;;;;;;;;;;;6.80;99.90;;;;;;12361760;28;19979;-36
2021/01/21 11:19:39;;;;;;;;;;;6.90;99.90;;;;;;12400554;28;20052;-35
2021/01/21 11:25:40;;;;;;;;;;;6.90;99.90;;;;;;12341674;28;19984;-36
2021/01/21 11:31:42;;;;;;;;;;;6.90;99.90;;;;;;12340795;28;19969;-36
2021/01/21 11:37:43;;;;;;;;;;;7.10;99.90;;;;;;12346782;28;19949;-36
2021/01/21 11:43:44;;;;;;;;;;;7.20;99.90;;;;;;12396205;28;19930;-36
2021/01/21 11:49:46;;;;;;;;;;;7.40;99.90;;;;;;12388761;28;19996;-36
2021/01/21 11:55:48;;;;;;;;;;;7.70;99.90;;;;;;12390373;28;19926;-36
2021/01/21 12:01:49;;;;;;;;;;;7.40;99.90;;;;;;12400903;28;20012;-36
2021/01/21 12:07:50;;;;;;;;;;;7.40;99.90;;;;;;12405657;28;20301;-36
2021/01/21 12:13:51;;;;;;;;;;;7.40;99.90;;;;;;12381530;28;19956;-36
2021/01/21 12:19:53;;;;;;;;;;;7.50;99.90;;;;;;12351131;28;20363;-36
2021/01/21 12:25:54;;;;;;;;;;;7.40;99.90;;;;;;12330526;28;19969;-36
2021/01/21 12:31:55;;;;;;;;;;;7.50;99.90;;;;;;12364635;28;19976;-36
2021/01/21 12:37:57;;;;;;;;;;;7.40;99.90;;;;;;12387278;28;19940;-36
2021/01/21 12:43:58;;;;;;;;;;;7.40;99.90;;;;;;12416443;28;19929;-36
2021/01/21 12:49:59;;;;;;;;;;;7.50;99.90;;;;;;12409949;28;19987;-35
2021/01/21 12:56:01;;;;;;;;;;;7.50;99.90;;;;;;12366598;28;19936;-36
2021/01/21 13:02:02;;;;;;;;;;;7.50;99.90;;;;;;12362507;28;19929;-36
2021/01/21 13:08:04;;;;;;;;;;;7.60;99.90;;;;;;12351481;28;19983;-36
2021/01/21 13:14:06;;;;;;;;;;;7.60;99.90;;;;;;12369174;28;20383;-35
2021/01/21 13:20:07;;;;;;;;;;;7.70;99.90;;;;;;12403149;28;20426;-38
2021/01/21 13:26:08;;;;;;;;;;;7.70;99.90;;;;;;12401287;28;20476;-36
2021/01/21 13:32:10;;;;;;;;;;;7.60;99.90;;;;;;12381413;28;19991;-36
2021/01/21 13:38:12;;;;;;;;;;;7.40;99.90;;;;;;12366749;28;19925;-35
2021/01/21 13:44:33;;;;;;;;;;;7.40;99.90;;;;;;12396740;28;19930;-36
2021/01/21 13:50:34;;;;;;;;;;;7.40;99.90;;;;;;12377062;28;19929;-35
2021/01/21 13:56:35;;;;;;;;;;;7.30;99.90;;;;;;12399836;28;19956;-36
2021/01/21 14:02:36;;;;;;;;;;;7.30;99.90;;;;;;12392664;28;20518;-36
2021/01/21 14:08:38;;;;;;;;;;;7.30;99.90;;;;;;12402431;28;19933;-36
2021/01/21 14:14:39;;;;;;;;;;;7.30;99.90;;;;;;12389893;28;19973;-37
2021/01/21 14:20:43;;;;;;;;;;;7.30;99.90;;;;;;12376694;28;19936;-36
2021/01/21 14:26:44;;;;;;;;;;;7.20;99.90;;;;;;12375741;28;19987;-36
2021/01/21 14:32:46;;;;;;;;;;;7.20;99.90;;;;;;12386920;28;20075;-35
2021/01/21 14:38:47;;;;;;;;;;;7.10;99.90;;;;;;12367609;28;19926;-36
2021/01/21 14:44:49;;;;;;;;;;;7.20;99.90;;;;;;12356585;28;19933;-36
2021/01/21 14:50:50;;;;;;;;;;;7.10;99.90;;;;;;12334708;28;20474;-36
2021/01/21 14:56:51;;;;;;;;;;;7.00;99.90;;;;;;12391303;28;19925;-36
2021/01/21 15:02:52;;;;;;;;;;;6.80;99.90;;;;;;12416931;28;20018;-35
2021/01/21 15:08:54;;;;;;;;;;;6.80;99.90;;;;;;12359560;28;20862;-35
2021/01/21 15:14:59;;;;;;;;;;;6.70;99.90;;;;;;12367137;28;19936;-36
2021/01/21 15:21:08;;;;;;;;;;;6.70;99.90;;;;;;12365256;28;19969;-35
2021/01/21 15:27:09;;;;;;;;;;;6.70;99.90;;;;;;12338864;28;20332;-35
2021/01/21 15:33:11;;;;;;;;;;;6.70;99.90;;;;;;12317733;28;19980;-36
2021/01/21 15:39:12;;;;;;;;;;;6.70;99.90;;;;;;12346282;28;19930;-37
2021/01/21 15:45:14;;;;;;;;;;;6.60;99.90;;;;;;12397214;28;20275;-35
2021/01/21 15:51:15;;;;;;;;;;;6.60;99.90;;;;;;12394484;28;20012;-36
2021/01/21 15:57:19;;;;;;;;;;;6.60;99.90;;;;;;12395957;28;19925;-35
2021/01/21 16:03:20;;;;;;;;;;;6.50;99.90;;;;;;12380458;28;20950;-36
2021/01/21 16:09:21;;;;;;;;;;;6.50;99.90;;;;;;12350965;28;20220;-36
2021/01/21 16:15:22;;;;;;;;;;;6.40;99.90;;;;;;12355884;28;19926;-35
2021/01/21 16:21:24;;;;;;;;;;;6.40;99.90;;;;;;12350513;28;19961;-35
2021/01/21 16:27:25;;;;;;;;;;;6.30;99.90;;;;;;12308651;28;19926;-36
2021/01/21 16:33:26;;;;;;;;;;;6.40;99.90;;;;;;12358946;28;20016;-35
2021/01/21 16:39:28;;;;;;;;;;;6.30;99.90;;;;;;12386413;28;19925;-36
2021/01/21 16:45:29;;;;;;;;;;;6.30;99.90;;;;;;12357590;28;19987;-36
2021/01/21 16:51:30;;;;;;;;;;;6.30;99.90;;;;;;12341443;28;20028;-36
2021/01/21 16:57:31;;;;;;;;;;;6.30;99.90;;;;;;12360506;28;19929;-36
2021/01/21 17:03:33;;;;;;;;;;;6.30;99.90;;;;;;12342546;28;20426;-35
2021/01/21 17:09:35;;;;;;;;;;;6.30;99.90;;;;;;12342780;28;20431;-36
2021/01/21 17:15:36;;;;;;;;;;;6.30;99.90;;;;;;12381933;28;19929;-36
2021/01/21 17:21:37;;;;;;;;;;;6.30;99.90;;;;;;12390929;28;20004;-36
2021/01/21 17:27:39;;;;;;;;;;;6.40;99.90;;;;;;12362371;28;19929;-36
2021/01/21 17:33:40;;;;;;;;;;;6.30;99.90;;;;;;12400993;28;19929;-35
2021/01/21 17:39:44;;;;;;;;;;;6.40;99.90;;;;;;12413265;28;20405;-37
2021/01/21 17:45:45;;;;;;;;;;;6.50;99.90;;;;;;12353441;28;19961;-36
2021/01/21 17:51:46;;;;;;;;;;;6.40;99.90;;;;;;12336308;28;20016;-35
2021/01/21 17:57:47;;;;;;;;;;;6.50;99.90;;;;;;12357426;28;19929;-36
2021/01/21 18:03:51;;;;;;;;;;;6.50;99.90;;;;;;12351967;28;19933;-38
2021/01/21 18:09:52;;;;;;;;;;;6.50;99.90;;;;;;12339975;28;20385;-37
2021/01/21 18:15:55;;;;;;;;;;;6.60;99.90;;;;;;12381761;28;20079;-37
2021/01/21 18:21:57;;;;;;;;;;;6.50;99.90;;;;;;12393479;28;20048;-36
2021/01/21 18:27:58;;;;;;;;;;;6.60;99.90;;;;;;12382451;28;19925;-36
2021/01/21 18:33:59;;;;;;;;;;;6.60;99.90;;;;;;12396240;28;20024;-36
2021/01/21 18:40:03;;;;;;;;;;;6.50;99.90;;;;;;12403544;28;20056;-33
2021/01/21 18:46:04;;;;;;;;;;;6.50;99.90;;;;;;12399764;28;19933;-33
2021/01/21 18:52:05;;;;;;;;;;;6.60;99.90;;;;;;12385788;28;20482;-33
2021/01/21 18:58:06;;;;;;;;;;;6.60;99.90;;;;;;12346552;28;20037;-33
2021/01/21 19:04:07;;;;;;;;;;;6.60;99.90;;;;;;12338167;28;19984;-40
2021/01/21 19:10:09;;;;;;;;;;;6.70;99.90;;;;;;12350425;28;20311;-41
2021/01/21 19:16:12;;;;;;;;;;;6.80;99.90;;;;;;12339759;28;19929;-33
2021/01/21 19:22:13;;;;;;;;;;;6.80;99.90;;;;;;12368584;28;20024;-33
2021/01/21 19:28:14;;;;;;;;;;;6.90;99.90;;;;;;12406196;28;20962;-33
2021/01/21 19:34:15;;;;;;;;;;;7.00;99.90;;;;;;12399916;28;19929;-33
2021/01/21 19:40:17;;;;;;;;;;;7.00;99.90;;;;;;12417260;28;20495;-33
2021/01/21 19:46:18;;;;;;;;;;;7.00;99.90;;;;;;12430282;28;19952;-33
2021/01/21 19:52:20;;;;;;;;;;;7.00;99.90;;;;;;12382696;28;20513;-34
2021/01/21 19:58:21;;;;;;;;;;;6.70;99.90;;;;;;12347061;28;19940;-33
2021/01/21 20:04:22;;;;;;;;;;;6.60;99.90;;;;;;12339102;28;19930;-33
2021/01/21 20:10:23;;;;;;;;;;;6.50;99.90;;;;;;12342798;28;19926;-33
2021/01/21 20:16:25;;;;;;;;;;;6.40;99.90;;;;;;12394029;28;19980;-33
2021/01/21 20:22:26;;;;;;;;;;;6.20;99.90;;;;;;12371790;28;19930;-33
2021/01/21 20:28:27;;;;;;;;;;;6.10;99.90;;;;;;12340864;28;20266;-33
2021/01/21 20:34:29;;;;;;;;;;;5.90;99.90;;;;;;12374972;28;19933;-33
2021/01/21 20:40:30;;;;;;;;;;;5.80;99.90;;;;;;12388235;28;20409;-33
2021/01/21 20:46:31;;;;;;;;;;;5.70;99.90;;;;;;12399968;28;19977;-34
2021/01/21 20:52:33;;;;;;;;;;;5.70;99.90;;;;;;12390781;28;20013;-33
2021/01/21 20:58:35;;;;;;;;;;;5.50;99.90;;;;;;12404873;28;20337;-33
2021/01/21 21:04:40;;;;;;;;;;;5.40;99.90;;;;;;12357392;28;19934;-33
2021/01/21 21:10:42;;;;;;;;;;;5.40;99.90;;;;;;12344095;28;20177;-33
2021/01/21 21:16:43;;;;;;;;;;;5.30;99.90;;;;;;12335838;28;19930;-34
2021/01/21 21:22:45;;;;;;;;;;;5.30;99.90;;;;;;12352191;28;20678;-33
2021/01/21 21:28:46;;;;;;;;;;;5.30;99.90;;;;;;12403797;28;20149;-34
2021/01/21 21:34:47;;;;;;;;;;;5.30;99.90;;;;;;12330921;28;20016;-33
2021/01/21 21:40:48;;;;;;;;;;;5.30;99.90;;;;;;12361700;28;20434;-33
2021/01/21 21:46:50;;;;;;;;;;;5.40;99.90;;;;;;12351964;28;19984;-33
2021/01/21 21:52:51;;;;;;;;;;;5.50;99.90;;;;;;12344863;28;20020;-33
2021/01/21 21:58:52;;;;;;;;;;;5.60;99.90;;;;;;12347754;28;19964;-33
2021/01/21 22:04:54;;;;;;;;;;;5.70;99.90;;;;;;12390464;28;19929;-33
2021/01/21 22:10:55;;;;;;;;;;;5.70;99.90;;;;;;12399955;28;19933;-33
2021/01/21 22:16:57;;;;;;;;;;;5.80;99.90;;;;;;12389231;28;19933;-33
2021/01/21 22:22:58;;;;;;;;;;;5.90;99.90;;;;;;12376950;28;19934;-33
2021/01/21 22:28:59;;;;;;;;;;;6.00;99.90;;;;;;12341141;28;20041;-33
2021/01/21 22:35:01;;;;;;;;;;;6.20;99.90;;;;;;12325805;28;20324;-33
2021/01/21 22:41:02;;;;;;;;;;;6.20;99.90;;;;;;12341048;28;19992;-33
2021/01/21 22:47:04;;;;;;;;;;;6.40;99.90;;;;;;12341548;28;19976;-33
2021/01/21 22:53:05;;;;;;;;;;;6.40;99.90;;;;;;12378966;28;20538;-33
2021/01/21 22:59:07;;;;;;;;;;;6.60;99.90;;;;;;12416711;28;19929;-33
2021/01/21 23:05:09;;;;;;;;;;;6.70;99.90;;;;;;12407826;28;19952;-33
2021/01/21 23:11:10;;;;;;;;;;;6.90;99.90;;;;;;12392382;28;19934;-34
2021/01/21 23:17:12;;;;;;;;;;;7.00;99.90;;;;;;12355416;28;19926;-33
2021/01/21 23:23:13;;;;;;;;;;;7.20;99.90;;;;;;12363726;28;20274;-33
2021/01/21 23:29:15;;;;;;;;;;;7.40;99.90;;;;;;12348228;28;19930;-33
2021/01/21 23:35:16;;;;;;;;;;;7.40;99.90;;;;;;12397893;28;20313;-33
2021/01/21 23:41:17;;;;;;;;;;;7.50;99.90;;;;;;12415891;28;21585;-33
2021/01/21 23:47:18;;;;;;;;;;;7.60;99.90;;;;;;12407002;28;19987;-34
2021/01/21 23:53:20;;;;;;;;;;;7.70;99.90;;;;;;12395997;28;19934;-33
2021/01/21 23:59:21;;;;;;;;;;;7.70;99.90;;;;;;12407375;28;20342;-33
